createdAt,value
2023-01-08T00:00:53.070Z,0.00
2023-01-08T00:01:52.964Z,0.00
2023-01-08T00:02:53.051Z,0.00
2023-01-08T00:03:53.076Z,0.00
2023-01-08T00:04:52.926Z,0.00
2023-01-08T00:05:52.907Z,0.00
2023-01-08T00:06:52.924Z,0.00
2023-01-08T00:07:52.896Z,0.00
2023-01-08T00:08:52.930Z,0.00
2023-01-08T00:09:52.987Z,0.00
2023-01-08T00:10:52.873Z,0.00
2023-01-08T00:11:52.841Z,0.00
2023-01-08T00:12:53.048Z,0.00
2023-01-08T00:13:52.825Z,0.00
2023-01-08T00:14:52.819Z,0.00
2023-01-08T00:15:52.790Z,0.00
2023-01-08T00:16:52.867Z,0.00
2023-01-08T00:17:52.795Z,0.00
2023-01-08T00:18:52.771Z,0.00
2023-01-08T00:19:52.750Z,0.00
2023-01-08T00:20:52.750Z,0.00
2023-01-08T00:21:53.031Z,0.00
2023-01-08T00:22:52.734Z,0.00
2023-01-08T00:23:52.735Z,0.00
2023-01-08T00:24:52.731Z,0.00
2023-01-08T00:25:53.627Z,0.00
2023-01-08T00:26:52.721Z,0.00
2023-01-08T00:27:53.042Z,0.00
2023-01-08T00:28:53.456Z,0.00
2023-01-08T00:29:52.665Z,0.00
2023-01-08T00:30:52.686Z,0.00
2023-01-08T00:31:52.613Z,0.00
2023-01-08T00:32:55.511Z,0.00
2023-01-08T00:33:53.036Z,0.00
2023-01-08T00:34:53.624Z,0.00
2023-01-08T00:35:53.038Z,0.00
2023-01-08T00:36:52.590Z,0.00
2023-01-08T00:37:52.551Z,0.00
2023-01-08T00:38:53.562Z,0.00
2023-01-08T00:39:52.545Z,0.00
2023-01-08T00:40:52.527Z,0.00
2023-01-08T00:41:52.624Z,0.00
2023-01-08T00:42:52.524Z,0.00
2023-01-08T00:43:52.512Z,0.00
2023-01-08T00:44:52.516Z,0.00
2023-01-08T00:45:52.511Z,0.00
2023-01-08T00:46:52.471Z,0.00
2023-01-08T00:47:52.440Z,0.00
2023-01-08T00:48:52.436Z,0.00
2023-01-08T00:49:52.427Z,0.00
2023-01-08T00:50:52.436Z,0.00
2023-01-08T00:51:54.498Z,0.00
2023-01-08T00:52:52.392Z,0.00
2023-01-08T00:53:52.379Z,0.00
2023-01-08T00:54:52.359Z,0.00
2023-01-08T00:55:52.367Z,0.00
2023-01-08T00:56:52.367Z,0.00
2023-01-08T00:57:52.454Z,0.00
2023-01-08T00:58:52.327Z,0.00
2023-01-08T00:59:53.025Z,0.00
2023-01-08T01:00:54.103Z,0.00
2023-01-08T01:01:52.510Z,0.00
2023-01-08T01:02:52.274Z,0.00
2023-01-08T01:03:52.312Z,0.00
2023-01-08T01:04:52.272Z,0.00
2023-01-08T01:05:52.250Z,0.00
2023-01-08T01:06:52.267Z,0.00
2023-01-08T01:07:52.224Z,0.00
2023-01-08T01:08:52.209Z,0.00
2023-01-08T01:09:52.203Z,0.00
2023-01-08T01:10:52.206Z,0.00
2023-01-08T01:11:52.205Z,0.00
2023-01-08T01:12:52.197Z,0.00
2023-01-08T01:13:52.273Z,0.00
2023-01-08T01:14:52.148Z,0.00
2023-01-08T01:15:52.138Z,0.00
2023-01-08T01:16:52.204Z,0.00
2023-01-08T01:17:53.198Z,0.00
2023-01-08T01:18:52.100Z,0.00
2023-01-08T01:19:52.096Z,0.00
2023-01-08T01:20:52.073Z,0.00
2023-01-08T01:21:52.071Z,0.00
2023-01-08T01:22:52.071Z,0.00
2023-01-08T01:23:52.046Z,0.00
2023-01-08T01:24:52.040Z,0.00
2023-01-08T01:25:52.058Z,0.00
2023-01-08T01:26:52.010Z,0.00
2023-01-08T01:27:52.010Z,0.00
2023-01-08T01:28:52.014Z,0.00
2023-01-08T01:29:52.087Z,0.00
2023-01-08T01:30:51.993Z,0.00
2023-01-08T01:31:51.955Z,0.00
2023-01-08T01:32:51.973Z,0.00
2023-01-08T01:33:51.964Z,0.00
2023-01-08T01:34:51.931Z,0.00
2023-01-08T01:35:51.911Z,0.00
2023-01-08T01:36:51.930Z,0.00
2023-01-08T01:37:51.889Z,0.00
2023-01-08T01:38:51.881Z,0.00
2023-01-08T01:39:51.868Z,0.00
2023-01-08T01:40:51.858Z,0.00
2023-01-08T01:41:51.866Z,0.00
2023-01-08T01:42:51.835Z,0.00
2023-01-08T01:43:51.869Z,0.00
2023-01-08T01:44:51.804Z,0.00
2023-01-08T01:45:51.999Z,0.00
2023-01-08T01:46:51.820Z,0.00
2023-01-08T01:47:51.777Z,0.00
2023-01-08T01:48:51.792Z,0.00
2023-01-08T01:49:52.516Z,0.00
2023-01-08T01:50:51.751Z,0.00
2023-01-08T01:51:51.742Z,0.00
2023-01-08T01:52:51.729Z,0.00
2023-01-08T01:53:51.723Z,0.00
2023-01-08T01:54:55.013Z,0.00
2023-01-08T01:55:51.697Z,0.00
2023-01-08T01:56:51.735Z,0.00
2023-01-08T01:57:58.529Z,0.00
2023-01-08T01:58:51.668Z,0.00
2023-01-08T01:59:52.517Z,0.00
2023-01-08T02:00:52.151Z,0.00
2023-01-08T02:01:51.898Z,0.00
2023-01-08T02:02:52.510Z,0.00
2023-01-08T02:03:51.669Z,0.00
2023-01-08T02:04:51.595Z,0.00
2023-01-08T02:05:51.600Z,0.00
2023-01-08T02:06:52.509Z,0.00
2023-01-08T02:07:54.541Z,0.00
2023-01-08T02:08:51.565Z,0.00
2023-01-08T02:09:52.061Z,0.00
2023-01-08T02:10:51.537Z,0.00
2023-01-08T02:11:51.508Z,0.00
2023-01-08T02:12:51.511Z,0.00
2023-01-08T02:13:51.500Z,0.00
2023-01-08T02:14:51.472Z,0.00
2023-01-08T02:15:51.462Z,0.00
2023-01-08T02:16:51.532Z,0.00
2023-01-08T02:17:51.572Z,0.00
2023-01-08T02:18:51.431Z,0.00
2023-01-08T02:19:51.435Z,0.00
2023-01-08T02:20:51.416Z,0.00
2023-01-08T02:21:51.433Z,0.00
2023-01-08T02:22:52.013Z,0.00
2023-01-08T02:23:51.389Z,0.00
2023-01-08T02:24:51.373Z,0.00
2023-01-08T02:25:51.561Z,0.00
2023-01-08T02:26:51.341Z,0.00
2023-01-08T02:27:51.345Z,0.00
2023-01-08T02:28:52.394Z,0.00
2023-01-08T02:29:51.308Z,0.00
2023-01-08T02:30:51.357Z,0.00
2023-01-08T02:31:51.300Z,0.00
2023-01-08T02:32:51.278Z,0.00
2023-01-08T02:33:51.386Z,0.00
2023-01-08T02:34:51.251Z,0.00
2023-01-08T02:35:51.253Z,0.00
2023-01-08T02:36:51.239Z,0.00
2023-01-08T02:37:52.029Z,0.00
2023-01-08T02:38:51.214Z,0.00
2023-01-08T02:39:51.206Z,0.00
2023-01-08T02:40:51.187Z,0.00
2023-01-08T02:41:51.192Z,0.00
2023-01-08T02:42:52.023Z,0.00
2023-01-08T02:43:51.162Z,0.00
2023-01-08T02:44:51.571Z,0.00
2023-01-08T02:45:51.159Z,0.00
2023-01-08T02:46:51.140Z,0.00
2023-01-08T02:47:51.104Z,0.00
2023-01-08T02:48:51.122Z,0.00
2023-01-08T02:49:51.192Z,0.00
2023-01-08T02:50:51.081Z,0.00
2023-01-08T02:51:51.055Z,0.00
2023-01-08T02:52:51.086Z,0.00
2023-01-08T02:53:51.066Z,0.00
2023-01-08T02:54:51.034Z,0.00
2023-01-08T02:55:53.519Z,0.00
2023-01-08T02:56:51.006Z,0.00
2023-01-08T02:57:51.002Z,0.00
2023-01-08T02:58:50.989Z,0.00
2023-01-08T02:59:51.039Z,0.00
2023-01-08T03:00:51.001Z,0.00
2023-01-08T03:01:51.115Z,0.00
2023-01-08T03:02:50.941Z,0.00
2023-01-08T03:03:51.006Z,0.00
2023-01-08T03:04:50.965Z,0.00
2023-01-08T03:05:51.018Z,0.00
2023-01-08T03:06:50.903Z,0.00
2023-01-08T03:07:50.926Z,0.00
2023-01-08T03:08:50.899Z,0.00
2023-01-08T03:09:50.865Z,0.00
2023-01-08T03:10:51.878Z,0.00
2023-01-08T03:11:50.861Z,0.00
2023-01-08T03:12:50.837Z,0.00
2023-01-08T03:13:50.831Z,0.00
2023-01-08T03:14:50.812Z,0.00
2023-01-08T03:15:50.835Z,0.00
2023-01-08T03:16:50.936Z,0.00
2023-01-08T03:17:50.833Z,0.00
2023-01-08T03:18:50.773Z,0.00
2023-01-08T03:19:50.742Z,0.00
2023-01-08T03:20:50.778Z,0.00
2023-01-08T03:21:50.840Z,0.00
2023-01-08T03:22:50.728Z,0.00
2023-01-08T03:23:50.710Z,0.00
2023-01-08T03:24:50.695Z,0.00
2023-01-08T03:25:50.739Z,0.00
2023-01-08T03:26:50.673Z,0.00
2023-01-08T03:27:50.684Z,0.00
2023-01-08T03:28:50.651Z,0.00
2023-01-08T03:29:50.643Z,0.00
2023-01-08T03:30:50.699Z,0.00
2023-01-08T03:31:51.053Z,0.00
2023-01-08T03:32:50.619Z,0.00
2023-01-08T03:33:50.604Z,0.00
2023-01-08T03:34:53.518Z,0.00
2023-01-08T03:35:50.598Z,0.00
2023-01-08T03:36:50.583Z,0.00
2023-01-08T03:37:50.755Z,0.00
2023-01-08T03:38:50.537Z,0.00
2023-01-08T03:39:50.522Z,0.00
2023-01-08T03:40:50.530Z,0.00
2023-01-08T03:41:50.499Z,0.00
2023-01-08T03:42:50.513Z,0.00
2023-01-08T03:43:50.483Z,0.00
2023-01-08T03:44:50.471Z,0.00
2023-01-08T03:45:50.495Z,0.00
2023-01-08T03:46:50.463Z,0.00
2023-01-08T03:47:50.458Z,0.00
2023-01-08T03:48:50.424Z,0.00
2023-01-08T03:49:53.016Z,0.00
2023-01-08T03:50:50.416Z,0.00
2023-01-08T03:51:50.387Z,0.00
2023-01-08T03:52:50.405Z,0.00
2023-01-08T03:53:50.490Z,0.00
2023-01-08T03:54:50.355Z,0.00
2023-01-08T03:55:50.356Z,0.00
2023-01-08T03:56:50.341Z,0.00
2023-01-08T03:57:50.339Z,0.00
2023-01-08T03:58:50.321Z,0.00
2023-01-08T03:59:50.306Z,0.00
2023-01-08T04:00:50.302Z,0.00
2023-01-08T04:01:50.410Z,0.00
2023-01-08T04:02:50.274Z,0.00
2023-01-08T04:03:50.295Z,0.00
2023-01-08T04:04:50.264Z,0.00
2023-01-08T04:05:50.236Z,0.00
2023-01-08T04:06:50.230Z,0.00
2023-01-08T04:07:50.211Z,0.00
2023-01-08T04:08:50.228Z,0.00
2023-01-08T04:09:50.341Z,0.00
2023-01-08T04:10:50.193Z,0.00
2023-01-08T04:11:50.201Z,0.00
2023-01-08T04:12:50.164Z,0.00
2023-01-08T04:13:51.034Z,0.00
2023-01-08T04:14:50.177Z,0.00
2023-01-08T04:15:50.184Z,0.00
2023-01-08T04:16:50.115Z,0.00
2023-01-08T04:17:50.113Z,0.00
2023-01-08T04:18:50.093Z,0.00
2023-01-08T04:19:50.110Z,0.00
2023-01-08T04:20:50.067Z,0.00
2023-01-08T04:21:50.060Z,0.00
2023-01-08T04:22:50.071Z,0.00
2023-01-08T04:23:50.043Z,0.00
2023-01-08T04:24:50.050Z,0.00
2023-01-08T04:25:50.133Z,0.00
2023-01-08T04:26:50.003Z,0.00
2023-01-08T04:27:50.052Z,0.00
2023-01-08T04:28:49.975Z,0.00
2023-01-08T04:29:49.995Z,0.00
2023-01-08T04:30:50.024Z,0.00
2023-01-08T04:31:49.963Z,0.00
2023-01-08T04:32:50.068Z,0.00
2023-01-08T04:33:49.925Z,0.00
2023-01-08T04:34:50.535Z,0.00
2023-01-08T04:35:49.927Z,0.00
2023-01-08T04:36:49.902Z,0.00
2023-01-08T04:37:49.876Z,0.00
2023-01-08T04:38:49.872Z,0.00
2023-01-08T04:39:49.860Z,0.00
2023-01-08T04:40:49.852Z,0.00
2023-01-08T04:41:49.996Z,0.00
2023-01-08T04:42:49.821Z,0.00
2023-01-08T04:43:50.069Z,0.00
2023-01-08T04:44:49.815Z,0.00
2023-01-08T04:45:49.830Z,0.00
2023-01-08T04:46:50.830Z,0.00
2023-01-08T04:47:50.052Z,0.00
2023-01-08T04:48:49.763Z,0.00
2023-01-08T04:49:49.746Z,0.00
2023-01-08T04:50:49.745Z,0.00
2023-01-08T04:51:49.754Z,0.00
2023-01-08T04:52:50.528Z,0.00
2023-01-08T04:53:49.713Z,0.00
2023-01-08T04:54:51.776Z,0.00
2023-01-08T04:55:49.688Z,0.00
2023-01-08T04:56:50.563Z,0.00
2023-01-08T04:57:50.633Z,0.00
2023-01-08T04:58:49.655Z,0.00
2023-01-08T04:59:49.688Z,0.00
2023-01-08T05:00:49.638Z,0.00
2023-01-08T05:01:49.777Z,0.00
2023-01-08T05:02:49.812Z,0.00
2023-01-08T05:03:49.596Z,0.00
2023-01-08T05:04:49.583Z,0.00
2023-01-08T05:05:50.528Z,0.00
2023-01-08T05:06:49.580Z,0.00
2023-01-08T05:07:49.562Z,0.00
2023-01-08T05:08:49.541Z,0.00
2023-01-08T05:09:49.521Z,0.00
2023-01-08T05:10:49.509Z,0.00
2023-01-08T05:11:49.508Z,0.00
2023-01-08T05:12:49.524Z,0.00
2023-01-08T05:13:49.595Z,0.00
2023-01-08T05:14:49.489Z,0.00
2023-01-08T05:15:49.514Z,0.00
2023-01-08T05:16:49.463Z,0.00
2023-01-08T05:17:49.579Z,0.00
2023-01-08T05:18:56.023Z,0.00
2023-01-08T05:19:49.452Z,0.00
2023-01-08T05:20:49.401Z,0.00
2023-01-08T05:21:49.387Z,0.00
2023-01-08T05:22:49.373Z,0.00
2023-01-08T05:23:49.393Z,0.00
2023-01-08T05:24:56.026Z,0.00
2023-01-08T05:25:49.350Z,0.00
2023-01-08T05:26:49.341Z,0.00
2023-01-08T05:27:49.329Z,0.00
2023-01-08T05:28:49.324Z,0.00
2023-01-08T05:29:49.437Z,0.00
2023-01-08T05:30:49.352Z,0.00
2023-01-08T05:31:49.277Z,0.00
2023-01-08T05:32:52.025Z,0.00
2023-01-08T05:33:49.249Z,0.00
2023-01-08T05:34:49.272Z,0.00
2023-01-08T05:35:49.229Z,0.00
2023-01-08T05:36:49.222Z,0.00
2023-01-08T05:37:49.211Z,0.00
2023-01-08T05:38:49.227Z,0.00
2023-01-08T05:39:49.201Z,0.00
2023-01-08T05:40:49.169Z,0.00
2023-01-08T05:41:49.171Z,0.00
2023-01-08T05:42:49.165Z,0.00
2023-01-08T05:43:49.138Z,0.00
2023-01-08T05:44:50.215Z,0.00
2023-01-08T05:45:49.694Z,0.00
2023-01-08T05:46:49.104Z,0.00
2023-01-08T05:47:49.104Z,0.00
2023-01-08T05:48:49.113Z,0.00
2023-01-08T05:49:49.079Z,0.00
2023-01-08T05:50:50.091Z,0.00
2023-01-08T05:51:49.055Z,0.00
2023-01-08T05:52:49.044Z,0.00
2023-01-08T05:53:49.044Z,0.00
2023-01-08T05:54:49.036Z,0.00
2023-01-08T05:55:49.069Z,0.00
2023-01-08T05:56:49.000Z,0.00
2023-01-08T05:57:49.004Z,0.00
2023-01-08T05:58:48.972Z,0.00
2023-01-08T05:59:49.538Z,0.00
2023-01-08T06:00:48.993Z,0.00
2023-01-08T06:01:49.197Z,0.00
2023-01-08T06:02:49.019Z,0.00
2023-01-08T06:03:48.936Z,0.00
2023-01-08T06:04:48.950Z,0.00
2023-01-08T06:05:48.901Z,0.00
2023-01-08T06:06:48.889Z,0.00
2023-01-08T06:07:48.917Z,0.00
2023-01-08T06:08:48.864Z,0.00
2023-01-08T06:09:48.857Z,0.00
2023-01-08T06:10:48.875Z,0.00
2023-01-08T06:11:48.825Z,0.00
2023-01-08T06:12:49.915Z,0.00
2023-01-08T06:13:48.808Z,0.00
2023-01-08T06:14:49.539Z,0.00
2023-01-08T06:15:48.844Z,0.00
2023-01-08T06:16:51.536Z,0.00
2023-01-08T06:17:48.888Z,0.00
2023-01-08T06:18:48.777Z,0.00
2023-01-08T06:19:48.746Z,0.00
2023-01-08T06:20:48.757Z,0.00
2023-01-08T06:21:48.718Z,0.00
2023-01-08T06:22:48.712Z,0.00
2023-01-08T06:23:48.719Z,0.00
2023-01-08T06:24:48.695Z,0.00
2023-01-08T06:25:48.690Z,0.00
2023-01-08T06:26:48.669Z,0.00
2023-01-08T06:27:48.653Z,0.00
2023-01-08T06:28:48.643Z,0.00
2023-01-08T06:29:48.668Z,0.00
2023-01-08T06:30:48.679Z,0.00
2023-01-08T06:31:48.610Z,0.00
2023-01-08T06:32:48.608Z,0.00
2023-01-08T06:33:48.705Z,0.00
2023-01-08T06:34:48.578Z,0.00
2023-01-08T06:35:48.656Z,0.00
2023-01-08T06:36:48.568Z,0.00
2023-01-08T06:37:48.536Z,0.00
2023-01-08T06:38:48.534Z,0.00
2023-01-08T06:39:48.603Z,0.00
2023-01-08T06:40:48.582Z,0.00
2023-01-08T06:41:48.504Z,0.00
2023-01-08T06:42:48.504Z,0.00
2023-01-08T06:43:48.470Z,0.00
2023-01-08T06:44:49.531Z,0.00
2023-01-08T06:45:48.454Z,0.00
2023-01-08T06:46:49.573Z,0.00
2023-01-08T06:47:48.422Z,0.00
2023-01-08T06:48:49.473Z,0.00
2023-01-08T06:49:48.519Z,0.00
2023-01-08T06:50:49.042Z,0.00
2023-01-08T06:51:48.415Z,0.00
2023-01-08T06:52:48.382Z,0.00
2023-01-08T06:53:48.366Z,0.00
2023-01-08T06:54:48.362Z,0.00
2023-01-08T06:55:55.030Z,0.00
2023-01-08T06:56:53.776Z,0.00
2023-01-08T06:57:49.334Z,0.00
2023-01-08T06:58:48.307Z,0.00
2023-01-08T06:59:48.298Z,0.00
2023-01-08T07:00:48.283Z,0.00
2023-01-08T07:01:48.435Z,0.00
2023-01-08T07:02:48.425Z,0.00
2023-01-08T07:03:48.258Z,0.00
2023-01-08T07:04:49.049Z,0.00
2023-01-08T07:05:48.254Z,0.00
2023-01-08T07:06:48.235Z,0.00
2023-01-08T07:07:48.208Z,0.00
2023-01-08T07:08:48.219Z,0.00
2023-01-08T07:09:48.183Z,0.00
2023-01-08T07:10:48.168Z,0.00
2023-01-08T07:11:48.166Z,0.00
2023-01-08T07:12:48.153Z,0.00
2023-01-08T07:13:48.191Z,0.00
2023-01-08T07:14:48.135Z,0.00
2023-01-08T07:15:48.156Z,0.00
2023-01-08T07:16:48.111Z,0.00
2023-01-08T07:17:48.101Z,0.00
2023-01-08T07:18:48.103Z,0.00
2023-01-08T07:19:48.061Z,0.00
2023-01-08T07:20:48.076Z,0.00
2023-01-08T07:21:48.173Z,0.00
2023-01-08T07:22:48.046Z,0.00
2023-01-08T07:23:49.056Z,0.00
2023-01-08T07:24:48.054Z,0.00
2023-01-08T07:25:48.006Z,0.00
2023-01-08T07:26:47.988Z,0.00
2023-01-08T07:27:47.993Z,0.00
2023-01-08T07:28:47.975Z,0.00
2023-01-08T07:29:47.970Z,0.00
2023-01-08T07:30:47.970Z,0.00
2023-01-08T07:31:47.943Z,0.00
2023-01-08T07:32:47.921Z,0.00
2023-01-08T07:33:48.540Z,0.00
2023-01-08T07:34:47.909Z,0.00
2023-01-08T07:35:47.915Z,0.00
2023-01-08T07:36:47.896Z,0.00
2023-01-08T07:37:47.991Z,0.00
2023-01-08T07:38:47.862Z,0.00
2023-01-08T07:39:48.872Z,0.00
2023-01-08T07:40:47.832Z,0.00
2023-01-08T07:41:47.847Z,0.00
2023-01-08T07:42:47.811Z,0.00
2023-01-08T07:43:48.552Z,0.00
2023-01-08T07:44:47.814Z,0.00
2023-01-08T07:45:47.791Z,0.00
2023-01-08T07:46:47.802Z,0.00
2023-01-08T07:47:48.539Z,0.00
2023-01-08T07:48:47.798Z,0.00
2023-01-08T07:49:48.794Z,0.00
2023-01-08T07:50:47.746Z,0.00
2023-01-08T07:51:47.723Z,0.00
2023-01-08T07:52:48.542Z,0.00
2023-01-08T07:53:48.843Z,0.00
2023-01-08T07:54:47.693Z,0.00
2023-01-08T07:55:47.677Z,0.00
2023-01-08T07:56:47.655Z,0.00
2023-01-08T07:57:47.685Z,0.00
2023-01-08T07:58:47.637Z,0.00
2023-01-08T07:59:47.629Z,0.00
2023-01-08T08:00:50.548Z,0.00
2023-01-08T08:01:47.717Z,0.00
2023-01-08T08:02:47.680Z,0.00
2023-01-08T08:03:47.600Z,0.00
2023-01-08T08:04:47.570Z,5.62
2023-01-08T08:05:48.532Z,5.62
2023-01-08T08:06:47.572Z,5.62
2023-01-08T08:07:48.041Z,5.62
2023-01-08T08:08:48.047Z,5.62
2023-01-08T08:09:47.656Z,11.25
2023-01-08T08:10:48.063Z,11.25
2023-01-08T08:11:47.495Z,11.25
2023-01-08T08:12:47.480Z,11.25
2023-01-08T08:13:47.556Z,11.25
2023-01-08T08:14:47.485Z,11.25
2023-01-08T08:15:47.493Z,16.88
2023-01-08T08:16:47.455Z,16.88
2023-01-08T08:17:47.426Z,16.88
2023-01-08T08:18:47.434Z,16.88
2023-01-08T08:19:47.403Z,16.88
2023-01-08T08:20:47.410Z,16.88
2023-01-08T08:21:47.400Z,16.88
2023-01-08T08:22:48.379Z,22.50
2023-01-08T08:23:47.373Z,22.50
2023-01-08T08:24:47.354Z,22.50
2023-01-08T08:25:47.470Z,16.88
2023-01-08T08:26:48.055Z,16.88
2023-01-08T08:27:47.327Z,16.88
2023-01-08T08:28:50.036Z,16.88
2023-01-08T08:29:47.315Z,16.88
2023-01-08T08:30:47.291Z,16.88
2023-01-08T08:31:47.270Z,11.25
2023-01-08T08:32:47.263Z,11.25
2023-01-08T08:33:47.256Z,11.25
2023-01-08T08:34:47.256Z,11.25
2023-01-08T08:35:47.245Z,11.25
2023-01-08T08:36:47.213Z,11.25
2023-01-08T08:37:47.217Z,11.25
2023-01-08T08:38:47.187Z,16.88
2023-01-08T08:39:47.189Z,16.88
2023-01-08T08:40:47.167Z,11.25
2023-01-08T08:41:47.198Z,11.25
2023-01-08T08:42:47.149Z,11.25
2023-01-08T08:43:47.152Z,11.25
2023-01-08T08:44:47.130Z,11.25
2023-01-08T08:45:47.130Z,11.25
2023-01-08T08:46:47.187Z,11.25
2023-01-08T08:47:47.110Z,11.25
2023-01-08T08:48:47.088Z,16.88
2023-01-08T08:49:47.082Z,16.88
2023-01-08T08:50:47.060Z,16.88
2023-01-08T08:51:47.043Z,22.50
2023-01-08T08:52:47.061Z,22.50
2023-01-08T08:53:47.028Z,22.50
2023-01-08T08:54:47.012Z,28.12
2023-01-08T08:55:47.008Z,28.12
2023-01-08T08:56:47.004Z,28.12
2023-01-08T08:57:47.110Z,33.75
2023-01-08T08:58:47.002Z,28.12
2023-01-08T08:59:46.965Z,45.00
2023-01-08T09:00:46.958Z,33.75
2023-01-08T09:01:47.030Z,33.75
2023-01-08T09:02:47.069Z,33.75
2023-01-08T09:03:46.941Z,33.75
2023-01-08T09:04:47.562Z,39.38
2023-01-08T09:05:47.536Z,45.00
2023-01-08T09:06:46.908Z,33.75
2023-01-08T09:07:46.865Z,33.75
2023-01-08T09:08:46.878Z,33.75
2023-01-08T09:09:47.064Z,28.12
2023-01-08T09:10:46.851Z,28.12
2023-01-08T09:11:46.829Z,28.12
2023-01-08T09:12:49.659Z,28.12
2023-01-08T09:13:46.822Z,33.75
2023-01-08T09:14:47.070Z,28.12
2023-01-08T09:15:46.803Z,28.12
2023-01-08T09:16:46.771Z,33.75
2023-01-08T09:17:53.530Z,33.75
2023-01-08T09:18:46.770Z,33.75
2023-01-08T09:19:46.759Z,33.75
2023-01-08T09:20:53.571Z,33.75
2023-01-08T09:21:46.712Z,33.75
2023-01-08T09:22:50.552Z,39.38
2023-01-08T09:23:47.562Z,39.38
2023-01-08T09:24:47.551Z,45.00
2023-01-08T09:25:46.672Z,45.00
2023-01-08T09:26:46.681Z,39.38
2023-01-08T09:27:47.545Z,39.38
2023-01-08T09:28:47.660Z,39.38
2023-01-08T09:29:46.624Z,39.38
2023-01-08T09:30:47.575Z,45.00
2023-01-08T09:31:46.708Z,50.62
2023-01-08T09:32:49.543Z,50.62
2023-01-08T09:33:47.539Z,50.62
2023-01-08T09:34:46.582Z,56.25
2023-01-08T09:35:46.553Z,61.88
2023-01-08T09:36:46.565Z,61.88
2023-01-08T09:37:53.040Z,61.88
2023-01-08T09:38:46.559Z,61.88
2023-01-08T09:39:51.169Z,61.88
2023-01-08T09:40:48.036Z,61.88
2023-01-08T09:41:47.537Z,61.88
2023-01-08T09:42:46.495Z,61.88
2023-01-08T09:43:46.478Z,61.88
2023-01-08T09:44:46.691Z,61.88
2023-01-08T09:45:46.454Z,61.88
2023-01-08T09:46:46.537Z,61.88
2023-01-08T09:47:46.429Z,61.88
2023-01-08T09:48:47.046Z,61.88
2023-01-08T09:49:49.046Z,61.88
2023-01-08T09:50:46.410Z,61.88
2023-01-08T09:51:46.406Z,61.88
2023-01-08T09:52:46.388Z,61.88
2023-01-08T09:53:46.374Z,61.88
2023-01-08T09:54:47.053Z,61.88
2023-01-08T09:55:46.359Z,61.88
2023-01-08T09:56:47.034Z,61.88
2023-01-08T09:57:46.599Z,61.88
2023-01-08T09:58:47.107Z,61.88
2023-01-08T09:59:47.045Z,61.88
2023-01-08T10:00:46.485Z,61.88
2023-01-08T10:01:46.390Z,61.88
2023-01-08T10:02:46.336Z,61.88
2023-01-08T10:03:46.265Z,61.88
2023-01-08T10:04:47.294Z,61.88
2023-01-08T10:05:46.261Z,61.88
2023-01-08T10:06:46.245Z,61.88
2023-01-08T10:07:46.200Z,67.50
2023-01-08T10:09:47.195Z,67.50
2023-01-08T10:10:46.175Z,67.50
2023-01-08T10:11:46.165Z,67.50
2023-01-08T10:12:46.153Z,67.50
2023-01-08T10:13:46.137Z,67.50
2023-01-08T10:14:46.154Z,67.50
2023-01-08T10:15:46.125Z,67.50
2023-01-08T10:16:46.129Z,67.50
2023-01-08T10:17:46.105Z,67.50
2023-01-08T10:18:46.089Z,67.50
2023-01-08T10:19:46.082Z,67.50
2023-01-08T10:20:46.066Z,67.50
2023-01-08T10:21:46.070Z,67.50
2023-01-08T10:22:46.046Z,67.50
2023-01-08T10:23:46.025Z,67.50
2023-01-08T10:24:47.081Z,67.50
2023-01-08T10:25:46.003Z,61.88
2023-01-08T10:26:48.557Z,61.88
2023-01-08T10:27:46.005Z,61.88
2023-01-08T10:28:45.972Z,61.88
2023-01-08T10:29:46.561Z,61.88
2023-01-08T10:30:46.976Z,61.88
2023-01-08T10:31:46.203Z,61.88
2023-01-08T10:32:46.043Z,61.88
2023-01-08T10:33:45.923Z,61.88
2023-01-08T10:34:45.920Z,61.88
2023-01-08T10:35:45.892Z,61.88
2023-01-08T10:36:45.881Z,61.88
2023-01-08T10:37:45.884Z,61.88
2023-01-08T10:38:45.875Z,61.88
2023-01-08T10:39:45.862Z,61.88
2023-01-08T10:40:45.862Z,61.88
2023-01-08T10:41:52.545Z,61.88
2023-01-08T10:42:45.834Z,61.88
2023-01-08T10:43:45.805Z,61.88
2023-01-08T10:44:45.796Z,61.88
2023-01-08T10:45:45.819Z,61.88
2023-01-08T10:46:45.789Z,56.25
2023-01-08T10:47:45.775Z,56.25
2023-01-08T10:48:46.223Z,56.25
2023-01-08T10:49:45.746Z,56.25
2023-01-08T10:50:45.744Z,56.25
2023-01-08T10:51:46.540Z,56.25
2023-01-08T10:52:45.713Z,56.25
2023-01-08T10:53:45.695Z,56.25
2023-01-08T10:54:45.715Z,56.25
2023-01-08T10:55:46.541Z,56.25
2023-01-08T10:56:45.658Z,56.25
2023-01-08T10:57:52.547Z,61.88
2023-01-08T10:58:47.611Z,61.88
2023-01-08T10:59:45.629Z,61.88
2023-01-08T11:00:46.107Z,67.50
2023-01-08T11:01:46.244Z,67.50
2023-01-08T11:02:45.654Z,67.50
2023-01-08T11:03:45.587Z,73.12
2023-01-08T11:04:46.106Z,73.12
2023-01-08T11:05:46.569Z,73.12
2023-01-08T11:06:45.548Z,73.12
2023-01-08T11:07:45.553Z,73.12
2023-01-08T11:08:45.563Z,73.12
2023-01-08T11:09:45.521Z,78.75
2023-01-08T11:10:45.508Z,78.75
2023-01-08T11:11:45.512Z,78.75
2023-01-08T11:12:45.503Z,78.75
2023-01-08T11:13:46.044Z,78.75
2023-01-08T11:14:45.550Z,78.75
2023-01-08T11:15:46.038Z,78.75
2023-01-08T11:16:45.456Z,73.12
2023-01-08T11:17:45.447Z,78.75
2023-01-08T11:18:45.434Z,78.75
2023-01-08T11:19:45.409Z,78.75
2023-01-08T11:20:48.085Z,78.75
2023-01-08T11:21:45.409Z,78.75
2023-01-08T11:22:45.391Z,78.75
2023-01-08T11:23:45.375Z,78.75
2023-01-08T11:24:46.076Z,78.75
2023-01-08T11:25:45.358Z,84.38
2023-01-08T11:26:45.345Z,84.38
2023-01-08T11:27:46.046Z,84.38
2023-01-08T11:28:45.308Z,84.38
2023-01-08T11:29:45.297Z,84.38
2023-01-08T11:30:52.050Z,84.38
2023-01-08T11:31:45.388Z,84.38
2023-01-08T11:32:45.267Z,90.00
2023-01-08T11:33:45.248Z,90.00
2023-01-08T11:34:46.640Z,90.00
2023-01-08T11:35:45.234Z,90.00
2023-01-08T11:36:45.223Z,90.00
2023-01-08T11:37:46.043Z,90.00
2023-01-08T11:38:45.193Z,95.62
2023-01-08T11:39:45.209Z,95.62
2023-01-08T11:40:45.189Z,95.62
2023-01-08T11:41:45.256Z,95.62
2023-01-08T11:42:45.163Z,95.62
2023-01-08T11:43:52.070Z,95.62
2023-01-08T11:44:47.205Z,95.62
2023-01-08T11:45:45.166Z,95.62
2023-01-08T11:46:45.102Z,101.25
2023-01-08T11:47:45.120Z,101.25
2023-01-08T11:48:45.087Z,101.25
2023-01-08T11:49:45.090Z,101.25
2023-01-08T11:50:45.055Z,101.25
2023-01-08T11:51:45.069Z,101.25
2023-01-08T11:52:45.071Z,95.62
2023-01-08T11:53:46.045Z,95.62
2023-01-08T11:54:45.022Z,106.88
2023-01-08T11:55:45.044Z,101.25
2023-01-08T11:56:44.994Z,67.50
2023-01-08T11:57:44.979Z,78.75
2023-01-08T11:58:44.988Z,78.75
2023-01-08T11:59:44.992Z,101.25
2023-01-08T12:00:44.957Z,73.12
2023-01-08T12:01:45.096Z,73.12
2023-01-08T12:02:44.928Z,78.75
2023-01-08T12:03:44.929Z,90.00
2023-01-08T12:04:44.906Z,73.12
2023-01-08T12:05:44.922Z,73.12
2023-01-08T12:06:44.887Z,73.12
2023-01-08T12:07:44.895Z,67.50
2023-01-08T12:08:45.615Z,67.50
2023-01-08T12:09:44.859Z,67.50
2023-01-08T12:10:44.869Z,67.50
2023-01-08T12:11:45.849Z,73.12
2023-01-08T12:12:44.818Z,73.12
2023-01-08T12:13:44.818Z,67.50
2023-01-08T12:14:44.789Z,67.50
2023-01-08T12:15:44.788Z,73.12
2023-01-08T12:16:44.896Z,73.12
2023-01-08T12:17:44.765Z,73.12
2023-01-08T12:18:44.751Z,61.88
2023-01-08T12:19:44.765Z,61.88
2023-01-08T12:20:44.754Z,61.88
2023-01-08T12:21:44.743Z,67.50
2023-01-08T12:22:44.719Z,67.50
2023-01-08T12:23:45.564Z,67.50
2023-01-08T12:24:44.722Z,73.12
2023-01-08T12:25:45.101Z,67.50
2023-01-08T12:26:44.683Z,67.50
2023-01-08T12:27:57.663Z,61.88
2023-01-08T12:28:45.636Z,61.88
2023-01-08T12:29:45.569Z,67.50
2023-01-08T12:30:44.645Z,67.50
2023-01-08T12:31:48.687Z,67.50
2023-01-08T12:32:45.602Z,61.88
2023-01-08T12:33:44.593Z,56.25
2023-01-08T12:34:44.569Z,45.00
2023-01-08T12:35:44.562Z,39.38
2023-01-08T12:36:44.565Z,45.00
2023-01-08T12:37:44.575Z,45.00
2023-01-08T12:38:44.543Z,45.00
2023-01-08T12:39:44.513Z,45.00
2023-01-08T12:40:44.531Z,50.62
2023-01-08T12:41:44.492Z,56.25
2023-01-08T12:42:47.127Z,50.62
2023-01-08T12:43:45.588Z,45.00
2023-01-08T12:44:45.060Z,39.38
2023-01-08T12:45:44.578Z,39.38
2023-01-08T12:46:44.448Z,39.38
2023-01-08T12:47:44.427Z,39.38
2023-01-08T12:48:44.406Z,39.38
2023-01-08T12:49:44.410Z,33.75
2023-01-08T12:50:44.574Z,39.38
2023-01-08T12:51:44.392Z,45.00
2023-01-08T12:52:44.360Z,56.25
2023-01-08T12:53:44.363Z,67.50
2023-01-08T12:54:44.362Z,73.12
2023-01-08T12:55:45.396Z,84.38
2023-01-08T12:56:44.374Z,90.00
2023-01-08T12:57:45.066Z,84.38
2023-01-08T12:58:44.327Z,73.12
2023-01-08T12:59:45.057Z,67.50
2023-01-08T13:00:45.115Z,56.25
2023-01-08T13:01:44.370Z,50.62
2023-01-08T13:02:44.342Z,45.00
2023-01-08T13:03:44.248Z,50.62
2023-01-08T13:04:44.232Z,50.62
2023-01-08T13:05:44.229Z,45.00
2023-01-08T13:06:44.228Z,45.00
2023-01-08T13:07:44.206Z,39.38
2023-01-08T13:08:44.188Z,39.38
2023-01-08T13:09:44.199Z,33.75